sensor_id;sensor_type;location;lat;lon;timestamp;temperature;humidity
66150;DHT22;52952;50.904;20.648;2022-08-03T00:00:15;21;73
66150;DHT22;52952;50.904;20.648;2022-08-03T00:07:05;21;73
66150;DHT22;52952;50.904;20.648;2022-08-03T00:14:07;21;73
66150;DHT22;52952;50.904;20.648;2022-08-03T00:21:19;21;73
66150;DHT22;52952;50.904;20.648;2022-08-03T00:28:17;21;73
66150;DHT22;52952;50.904;20.648;2022-08-03T00:35:14;21;70
66150;DHT22;52952;50.904;20.648;2022-08-03T00:42:19;21;70
66150;DHT22;52952;50.904;20.648;2022-08-03T00:49:03;21;70
66150;DHT22;52952;50.904;20.648;2022-08-03T00:56:18;21;70
66150;DHT22;52952;50.904;20.648;2022-08-03T01:00:05;21;70
66150;DHT22;52952;50.904;20.648;2022-08-03T01:07:43;23;83
66150;DHT22;52952;50.904;20.648;2022-08-03T01:14:40;23;83
66150;DHT22;52952;50.904;20.648;2022-08-03T01:21:25;23;83
66150;DHT22;52952;50.904;20.648;2022-08-03T01:35:58;23;87
66150;DHT22;52952;50.904;20.648;2022-08-03T01:42:09;23;87
66150;DHT22;52952;50.904;20.648;2022-08-03T01:49:37;23;87
66150;DHT22;52952;50.904;20.648;2022-08-03T01:56:18;23;87
66150;DHT22;52952;50.904;20.648;2022-08-03T02:00:07;23;87
66150;DHT22;52952;50.904;20.648;2022-08-03T02:07:27;22;91
66150;DHT22;52952;50.904;20.648;2022-08-03T02:14:07;22;91
66150;DHT22;52952;50.904;20.648;2022-08-03T02:21:14;22;91
66150;DHT22;52952;50.904;20.648;2022-08-03T02:28:07;22;91
66150;DHT22;52952;50.904;20.648;2022-08-03T02:35:14;22;92
66150;DHT22;52952;50.904;20.648;2022-08-03T02:42:13;22;92
66150;DHT22;52952;50.904;20.648;2022-08-03T02:49:06;22;92
66150;DHT22;52952;50.904;20.648;2022-08-03T02:56:32;22;92
66150;DHT22;52952;50.904;20.648;2022-08-03T03:00:15;22;92
66150;DHT22;52952;50.904;20.648;2022-08-03T03:07:21;21;94
66150;DHT22;52952;50.904;20.648;2022-08-03T03:14:04;21;94
66150;DHT22;52952;50.904;20.648;2022-08-03T03:21:26;21;94
66150;DHT22;52952;50.904;20.648;2022-08-03T03:28:16;21;94
66150;DHT22;52952;50.904;20.648;2022-08-03T03:35:05;22;90
66150;DHT22;52952;50.904;20.648;2022-08-03T03:42:08;22;90
66150;DHT22;52952;50.904;20.648;2022-08-03T03:49:08;22;90
66150;DHT22;52952;50.904;20.648;2022-08-03T03:56:18;22;90
66150;DHT22;52952;50.904;20.648;2022-08-03T04:00:16;22;90
66150;DHT22;52952;50.904;20.648;2022-08-03T04:14:42;22;90
66150;DHT22;52952;50.904;20.648;2022-08-03T04:21:32;22;90
66150;DHT22;52952;50.904;20.648;2022-08-03T04:28:23;22;90
66150;DHT22;52952;50.904;20.648;2022-08-03T04:35:20;22;90
66150;DHT22;52952;50.904;20.648;2022-08-03T04:42:37;22;90
66150;DHT22;52952;50.904;20.648;2022-08-03T04:49:20;22;90
66150;DHT22;52952;50.904;20.648;2022-08-03T04:56:21;22;90
66150;DHT22;52952;50.904;20.648;2022-08-03T05:00:25;22;90
66150;DHT22;52952;50.904;20.648;2022-08-03T05:07:05;22;88
66150;DHT22;52952;50.904;20.648;2022-08-03T05:14:07;22;88
66150;DHT22;52952;50.904;20.648;2022-08-03T05:21:07;22;88
66150;DHT22;52952;50.904;20.648;2022-08-03T05:28:15;22;88
66150;DHT22;52952;50.904;20.648;2022-08-03T05:35:15;22;89
66150;DHT22;52952;50.904;20.648;2022-08-03T05:42:17;22;89
66150;DHT22;52952;50.904;20.648;2022-08-03T05:49:02;22;89
66150;DHT22;52952;50.904;20.648;2022-08-03T05:56:04;22;89
66150;DHT22;52952;50.904;20.648;2022-08-03T06:00:14;22;89
66150;DHT22;52952;50.904;20.648;2022-08-03T06:07:04;22;89
66150;DHT22;52952;50.904;20.648;2022-08-03T06:14:02;22;89
66150;DHT22;52952;50.904;20.648;2022-08-03T06:21:15;22;89
66150;DHT22;52952;50.904;20.648;2022-08-03T06:28:17;22;89
66150;DHT22;52952;50.904;20.648;2022-08-03T06:35:20;22;90
66150;DHT22;52952;50.904;20.648;2022-08-03T06:42:17;22;90
66150;DHT22;52952;50.904;20.648;2022-08-03T06:49:04;22;90
66150;DHT22;52952;50.904;20.648;2022-08-03T06:56:09;22;90
66150;DHT22;52952;50.904;20.648;2022-08-03T07:00:07;22;90
66150;DHT22;52952;50.904;20.648;2022-08-03T07:07:02;22;90
66150;DHT22;52952;50.904;20.648;2022-08-03T07:14:16;22;90
66150;DHT22;52952;50.904;20.648;2022-08-03T07:21:04;22;90
66150;DHT22;52952;50.904;20.648;2022-08-03T07:28:02;22;90
66150;DHT22;52952;50.904;20.648;2022-08-03T07:42:18;22;91
66150;DHT22;52952;50.904;20.648;2022-08-03T07:49:04;22;91
66150;DHT22;52952;50.904;20.648;2022-08-03T07:56:20;22;91
66150;DHT22;52952;50.904;20.648;2022-08-03T08:00:31;22;91
66150;DHT22;52952;50.904;20.648;2022-08-03T08:14:02;21;91
66150;DHT22;52952;50.904;20.648;2022-08-03T08:21:15;21;91
66150;DHT22;52952;50.904;20.648;2022-08-03T08:28:05;21;91
66150;DHT22;52952;50.904;20.648;2022-08-03T08:35:18;21;91
66150;DHT22;52952;50.904;20.648;2022-08-03T08:42:04;22;90
66150;DHT22;52952;50.904;20.648;2022-08-03T08:49:17;22;90
66150;DHT22;52952;50.904;20.648;2022-08-03T08:56:03;22;90
66150;DHT22;52952;50.904;20.648;2022-08-03T09:00:27;22;90
66150;DHT22;52952;50.904;20.648;2022-08-03T09:14:06;22;91
66150;DHT22;52952;50.904;20.648;2022-08-03T09:21:29;22;91
66150;DHT22;52952;50.904;20.648;2022-08-03T09:28:34;22;91
66150;DHT22;52952;50.904;20.648;2022-08-03T09:35:08;22;91
66150;DHT22;52952;50.904;20.648;2022-08-03T09:42:29;22;91
66150;DHT22;52952;50.904;20.648;2022-08-03T09:49:23;22;91
66150;DHT22;52952;50.904;20.648;2022-08-03T09:56:17;22;91
66150;DHT22;52952;50.904;20.648;2022-08-03T10:00:14;22;91
66150;DHT22;52952;50.904;20.648;2022-08-03T10:14:21;22;91
66150;DHT22;52952;50.904;20.648;2022-08-03T10:21:32;22;91
66150;DHT22;52952;50.904;20.648;2022-08-03T10:28:48;22;91
66150;DHT22;52952;50.904;20.648;2022-08-03T10:35:11;22;91
66150;DHT22;52952;50.904;20.648;2022-08-03T10:42:17;22;91
66150;DHT22;52952;50.904;20.648;2022-08-03T10:49:06;22;91
66150;DHT22;52952;50.904;20.648;2022-08-03T11:00:23;22;91
66150;DHT22;52952;50.904;20.648;2022-08-03T11:14:45;22;91
66150;DHT22;52952;50.904;20.648;2022-08-03T11:21:04;22;91
66150;DHT22;52952;50.904;20.648;2022-08-03T11:28:29;22;91
66150;DHT22;52952;50.904;20.648;2022-08-03T11:35:26;22;91
66150;DHT22;52952;50.904;20.648;2022-08-03T11:43:01;22;91
66150;DHT22;52952;50.904;20.648;2022-08-03T11:49:24;22;91
66150;DHT22;52952;50.904;20.648;2022-08-03T11:56:17;22;91
66150;DHT22;52952;50.904;20.648;2022-08-03T12:00:29;22;91
66150;DHT22;52952;50.904;20.648;2022-08-03T12:07:02;22;91
66150;DHT22;52952;50.904;20.648;2022-08-03T12:14:02;22;92
66150;DHT22;52952;50.904;20.648;2022-08-03T12:21:15;22;92
66150;DHT22;52952;50.904;20.648;2022-08-03T12:28:22;22;92
66150;DHT22;52952;50.904;20.648;2022-08-03T12:35:26;22;92
66150;DHT22;52952;50.904;20.648;2022-08-03T12:42:06;22;91
66150;DHT22;52952;50.904;20.648;2022-08-03T12:49:50;22;91
66150;DHT22;52952;50.904;20.648;2022-08-03T12:56:14;22;91
66150;DHT22;52952;50.904;20.648;2022-08-03T13:00:10;22;91
66150;DHT22;52952;50.904;20.648;2022-08-03T13:07:10;22;91
66150;DHT22;52952;50.904;20.648;2022-08-03T13:14:02;24;87
66150;DHT22;52952;50.904;20.648;2022-08-03T13:21:22;24;87
66150;DHT22;52952;50.904;20.648;2022-08-03T13:28:15;24;87
66150;DHT22;52952;50.904;20.648;2022-08-03T13:35:17;24;87
66150;DHT22;52952;50.904;20.648;2022-08-03T13:42:20;25;86
66150;DHT22;52952;50.904;20.648;2022-08-03T13:49:16;25;86
66150;DHT22;52952;50.904;20.648;2022-08-03T13:56:06;25;86
66150;DHT22;52952;50.904;20.648;2022-08-03T14:00:01;25;86
66150;DHT22;52952;50.904;20.648;2022-08-03T14:07:15;25;86
66150;DHT22;52952;50.904;20.648;2022-08-03T14:14:04;22;69
66150;DHT22;52952;50.904;20.648;2022-08-03T14:21:05;22;69
66150;DHT22;52952;50.904;20.648;2022-08-03T14:28:19;22;69
66150;DHT22;52952;50.904;20.648;2022-08-03T14:35:03;22;69
66150;DHT22;52952;50.904;20.648;2022-08-03T14:42:05;22;69
66150;DHT22;52952;50.904;20.648;2022-08-03T14:49:21;22;69
66150;DHT22;52952;50.904;20.648;2022-08-03T14:56:16;22;69
66150;DHT22;52952;50.904;20.648;2022-08-03T15:00:04;22;69
66150;DHT22;52952;50.904;20.648;2022-08-03T15:07:03;22;69
66150;DHT22;52952;50.904;20.648;2022-08-03T15:14:04;22;68
66150;DHT22;52952;50.904;20.648;2022-08-03T15:21:02;22;68
66150;DHT22;52952;50.904;20.648;2022-08-03T15:28:17;22;68
66150;DHT22;52952;50.904;20.648;2022-08-03T15:35:08;22;68
66150;DHT22;52952;50.904;20.648;2022-08-03T15:49:19;22;68
66150;DHT22;52952;50.904;20.648;2022-08-03T15:56:06;22;68
66150;DHT22;52952;50.904;20.648;2022-08-03T16:00:07;22;68
66150;DHT22;52952;50.904;20.648;2022-08-03T16:07:26;22;68
66150;DHT22;52952;50.904;20.648;2022-08-03T16:21:06;22;68
66150;DHT22;52952;50.904;20.648;2022-08-03T16:28:09;22;68
66150;DHT22;52952;50.904;20.648;2022-08-03T16:35:23;22;68
66150;DHT22;52952;50.904;20.648;2022-08-03T16:49:20;22;68
66150;DHT22;52952;50.904;20.648;2022-08-03T16:56:17;22;68
66150;DHT22;52952;50.904;20.648;2022-08-03T17:00:05;22;68
66150;DHT22;52952;50.904;20.648;2022-08-03T17:07:04;22;68
66150;DHT22;52952;50.904;20.648;2022-08-03T17:21:05;22;67
66150;DHT22;52952;50.904;20.648;2022-08-03T17:28:14;22;67
66150;DHT22;52952;50.904;20.648;2022-08-03T17:35:17;22;67
66150;DHT22;52952;50.904;20.648;2022-08-03T17:49:19;22;67
66150;DHT22;52952;50.904;20.648;2022-08-03T17:56:38;22;67
66150;DHT22;52952;50.904;20.648;2022-08-03T18:07:46;22;67
66150;DHT22;52952;50.904;20.648;2022-08-03T18:21:25;22;68
66150;DHT22;52952;50.904;20.648;2022-08-03T18:28:05;22;68
66150;DHT22;52952;50.904;20.648;2022-08-03T18:35:14;22;68
66150;DHT22;52952;50.904;20.648;2022-08-03T18:49:39;22;72
66150;DHT22;52952;50.904;20.648;2022-08-03T18:56:43;22;72
66150;DHT22;52952;50.904;20.648;2022-08-03T19:00:41;22;72
66150;DHT22;52952;50.904;20.648;2022-08-03T19:07:32;22;72
66150;DHT22;52952;50.904;20.648;2022-08-03T19:21:27;22;72
66150;DHT22;52952;50.904;20.648;2022-08-03T19:28:25;22;72
66150;DHT22;52952;50.904;20.648;2022-08-03T19:35:07;22;72
66150;DHT22;52952;50.904;20.648;2022-08-03T19:42:41;22;72
66150;DHT22;52952;50.904;20.648;2022-08-03T19:49:04;22;72
66150;DHT22;52952;50.904;20.648;2022-08-03T19:56:32;22;72
66150;DHT22;52952;50.904;20.648;2022-08-03T20:00:18;22;72
66150;DHT22;52952;50.904;20.648;2022-08-03T20:07:18;22;72
66150;DHT22;52952;50.904;20.648;2022-08-03T20:21:32;22;72
66150;DHT22;52952;50.904;20.648;2022-08-03T20:28:17;22;72
66150;DHT22;52952;50.904;20.648;2022-08-03T20:35:21;22;72
66150;DHT22;52952;50.904;20.648;2022-08-03T20:42:06;22;72
66150;DHT22;52952;50.904;20.648;2022-08-03T20:49:25;22;72
66150;DHT22;52952;50.904;20.648;2022-08-03T20:56:09;22;72
66150;DHT22;52952;50.904;20.648;2022-08-03T21:00:26;22;72
66150;DHT22;52952;50.904;20.648;2022-08-03T21:07:09;22;72
66150;DHT22;52952;50.904;20.648;2022-08-03T21:21:36;22;72
66150;DHT22;52952;50.904;20.648;2022-08-03T21:28:10;22;72
66150;DHT22;52952;50.904;20.648;2022-08-03T21:35:25;22;72
66150;DHT22;52952;50.904;20.648;2022-08-03T21:49:07;22;72
66150;DHT22;52952;50.904;20.648;2022-08-03T21:56:35;22;72
66150;DHT22;52952;50.904;20.648;2022-08-03T22:00:05;22;72
66150;DHT22;52952;50.904;20.648;2022-08-03T22:07:23;22;72
66150;DHT22;52952;50.904;20.648;2022-08-03T22:14:19;22;73
66150;DHT22;52952;50.904;20.648;2022-08-03T22:21:30;22;73
66150;DHT22;52952;50.904;20.648;2022-08-03T22:28:34;22;73
66150;DHT22;52952;50.904;20.648;2022-08-03T22:35:08;22;73
66150;DHT22;52952;50.904;20.648;2022-08-03T22:42:19;22;73
66150;DHT22;52952;50.904;20.648;2022-08-03T22:49:21;22;73
66150;DHT22;52952;50.904;20.648;2022-08-03T22:56:17;22;73
66150;DHT22;52952;50.904;20.648;2022-08-03T23:07:40;22;73
66150;DHT22;52952;50.904;20.648;2022-08-03T23:14:13;22;73
66150;DHT22;52952;50.904;20.648;2022-08-03T23:21:21;22;73
66150;DHT22;52952;50.904;20.648;2022-08-03T23:28:18;22;73
66150;DHT22;52952;50.904;20.648;2022-08-03T23:42:24;22.21;75
66150;DHT22;52952;50.904;20.648;2022-08-03T23:49:02;22.21;75
66150;DHT22;52952;50.904;20.648;2022-08-03T23:56:29;22.21;75
